Terminal Aerodrome Forecast
Issued by NWS Chicago, IL

Home | Current Version | Previous Version | Graphics & Text | Print | Product List | Glossary On
Versions: 1 2 3 4 5 6 7 8 9 10 11 12 13 14 15 16 17 18 19 20 21 22 23 24 25 26 27 28 29 30 31 32 33 34
000
FTUS43 KLOT 281135
TAFRFD
TAF
KRFD 281135Z 2812/2912 VRB03KT P6SM OVC200
     FM281500 18006KT P6SM OVC150
     FM282100 12006KT P6SM OVC120 PROB30 2901/2907 4SM -SHRA
     FM290700 14009KT 6SM -SHRA OVC035=

USA.gov is the U.S. government's official web portal to all federal, state and local government web resources and services.